Scurry, Texas
Current Conditions -  °F | °C
As of 11:53 PM on Wednesday 22 Oct 2014 (Local Time) from KTRL Reporting Station
Clear Clear  
Wind Chill: 67°   Ceiling: Unl
Heat Index: 67°   Visibility: 10mi
Dew Point: 54°   Wind: 7mph
Humidity: 63%   Direction: 110°ESE
Pressure: 30.12"   Gusts: NA
Location:  32.52°N, 96.38°W
Report Text: KTRL 230453Z AUTO 11006KT 10SM CLR 19/12 A3012 RMK AO2 SLP195 T01940122
Loading
Personal Weather Stations






























Interactive Weather Map New forecast layout! Learn more

10-Day Weather Forecast

Advertisements
Track Severe Weather on mobile